sensor_id;sensor_type;location;lat;lon;timestamp;P1;durP1;ratioP1;P2;durP2;ratioP2
71937;SDS011;59810;48.800;9.086;2023-06-22T00:00:55;13.65;;;6.05;;
71937;SDS011;59810;48.800;9.086;2023-06-22T00:03:22;10.23;;;6.20;;
71937;SDS011;59810;48.800;9.086;2023-06-22T00:05:49;11.05;;;5.90;;
71937;SDS011;59810;48.800;9.086;2023-06-22T00:08:15;11.03;;;6.07;;
71937;SDS011;59810;48.800;9.086;2023-06-22T00:10:42;11.30;;;6.07;;
71937;SDS011;59810;48.800;9.086;2023-06-22T00:13:11;9.32;;;5.63;;
71937;SDS011;59810;48.800;9.086;2023-06-22T00:15:37;11.25;;;6.10;;
71937;SDS011;59810;48.800;9.086;2023-06-22T00:18:04;9.85;;;5.95;;
71937;SDS011;59810;48.800;9.086;2023-06-22T00:20:35;11.90;;;5.93;;
71937;SDS011;59810;48.800;9.086;2023-06-22T00:23:02;9.52;;;5.60;;
71937;SDS011;59810;48.800;9.086;2023-06-22T00:25:39;9.85;;;5.90;;
71937;SDS011;59810;48.800;9.086;2023-06-22T00:28:05;12.23;;;6.45;;
71937;SDS011;59810;48.800;9.086;2023-06-22T00:30:31;10.27;;;5.45;;
71937;SDS011;59810;48.800;9.086;2023-06-22T00:32:57;10.23;;;5.33;;
71937;SDS011;59810;48.800;9.086;2023-06-22T00:35:23;10.60;;;5.80;;
71937;SDS011;59810;48.800;9.086;2023-06-22T00:37:56;11.23;;;5.63;;
71937;SDS011;59810;48.800;9.086;2023-06-22T00:40:30;9.48;;;5.97;;
71937;SDS011;59810;48.800;9.086;2023-06-22T00:42:56;10.85;;;6.38;;
71937;SDS011;59810;48.800;9.086;2023-06-22T00:45:22;11.90;;;5.37;;
71937;SDS011;59810;48.800;9.086;2023-06-22T00:47:52;11.60;;;5.90;;
71937;SDS011;59810;48.800;9.086;2023-06-22T00:50:22;12.93;;;6.82;;
71937;SDS011;59810;48.800;9.086;2023-06-22T00:52:52;10.03;;;5.47;;
71937;SDS011;59810;48.800;9.086;2023-06-22T00:55:21;11.80;;;5.85;;
71937;SDS011;59810;48.800;9.086;2023-06-22T00:57:47;10.48;;;5.72;;
71937;SDS011;59810;48.800;9.086;2023-06-22T01:00:15;12.10;;;6.28;;
71937;SDS011;59810;48.800;9.086;2023-06-22T01:02:42;10.35;;;6.95;;
71937;SDS011;59810;48.800;9.086;2023-06-22T01:05:11;12.27;;;6.10;;
71937;SDS011;59810;48.800;9.086;2023-06-22T01:13:02;11.10;;;6.53;;
71937;SDS011;59810;48.800;9.086;2023-06-22T01:15:36;14.82;;;6.85;;
71937;SDS011;59810;48.800;9.086;2023-06-22T01:18:17;12.27;;;7.17;;
71937;SDS011;59810;48.800;9.086;2023-06-22T01:20:44;12.00;;;7.68;;
71937;SDS011;59810;48.800;9.086;2023-06-22T01:23:21;13.07;;;7.22;;
71937;SDS011;59810;48.800;9.086;2023-06-22T01:28:48;11.90;;;6.63;;
71937;SDS011;59810;48.800;9.086;2023-06-22T01:31:27;12.30;;;7.00;;
71937;SDS011;59810;48.800;9.086;2023-06-22T01:34:04;13.45;;;7.45;;
71937;SDS011;59810;48.800;9.086;2023-06-22T01:36:33;13.32;;;7.50;;
71937;SDS011;59810;48.800;9.086;2023-06-22T01:38:59;14.07;;;7.60;;
71937;SDS011;59810;48.800;9.086;2023-06-22T01:41:27;12.75;;;7.68;;
71937;SDS011;59810;48.800;9.086;2023-06-22T01:43:54;18.47;;;8.10;;
71937;SDS011;59810;48.800;9.086;2023-06-22T01:46:20;13.35;;;6.95;;
71937;SDS011;59810;48.800;9.086;2023-06-22T01:48:46;14.05;;;7.32;;
71937;SDS011;59810;48.800;9.086;2023-06-22T01:51:12;12.65;;;6.93;;
71937;SDS011;59810;48.800;9.086;2023-06-22T01:53:40;13.20;;;7.20;;
71937;SDS011;59810;48.800;9.086;2023-06-22T01:56:06;12.48;;;6.70;;
71937;SDS011;59810;48.800;9.086;2023-06-22T01:58:31;11.23;;;6.47;;
71937;SDS011;59810;48.800;9.086;2023-06-22T02:01:09;13.48;;;7.07;;
71937;SDS011;59810;48.800;9.086;2023-06-22T02:03:38;13.48;;;6.85;;
71937;SDS011;59810;48.800;9.086;2023-06-22T02:06:08;16.17;;;7.03;;
71937;SDS011;59810;48.800;9.086;2023-06-22T02:08:46;13.52;;;7.30;;
71937;SDS011;59810;48.800;9.086;2023-06-22T02:11:14;11.85;;;7.43;;
71937;SDS011;59810;48.800;9.086;2023-06-22T02:13:43;12.13;;;6.70;;
71937;SDS011;59810;48.800;9.086;2023-06-22T02:16:13;16.05;;;7.28;;
71937;SDS011;59810;48.800;9.086;2023-06-22T02:18:45;15.43;;;7.53;;
71937;SDS011;59810;48.800;9.086;2023-06-22T02:21:11;11.98;;;7.00;;
71937;SDS011;59810;48.800;9.086;2023-06-22T02:23:36;11.77;;;6.30;;
71937;SDS011;59810;48.800;9.086;2023-06-22T02:26:02;14.50;;;6.83;;
71937;SDS011;59810;48.800;9.086;2023-06-22T02:28:28;12.57;;;7.18;;
71937;SDS011;59810;48.800;9.086;2023-06-22T02:30:54;13.07;;;7.25;;
71937;SDS011;59810;48.800;9.086;2023-06-22T02:33:19;14.33;;;7.23;;
71937;SDS011;59810;48.800;9.086;2023-06-22T02:35:47;14.45;;;7.97;;
71937;SDS011;59810;48.800;9.086;2023-06-22T02:38:14;12.30;;;6.67;;
71937;SDS011;59810;48.800;9.086;2023-06-22T02:40:43;13.43;;;7.38;;
71937;SDS011;59810;48.800;9.086;2023-06-22T02:43:10;12.98;;;7.00;;
71937;SDS011;59810;48.800;9.086;2023-06-22T02:45:36;13.67;;;7.47;;
71937;SDS011;59810;48.800;9.086;2023-06-22T02:48:01;14.90;;;7.90;;
71937;SDS011;59810;48.800;9.086;2023-06-22T02:50:27;13.20;;;7.50;;
71937;SDS011;59810;48.800;9.086;2023-06-22T02:52:52;13.23;;;7.03;;
71937;SDS011;59810;48.800;9.086;2023-06-22T02:55:17;14.53;;;7.73;;
71937;SDS011;59810;48.800;9.086;2023-06-22T02:57:43;12.90;;;7.37;;
71937;SDS011;59810;48.800;9.086;2023-06-22T03:00:12;12.52;;;7.63;;
71937;SDS011;59810;48.800;9.086;2023-06-22T03:02:46;11.75;;;7.10;;
71937;SDS011;59810;48.800;9.086;2023-06-22T03:05:12;15.18;;;7.50;;
71937;SDS011;59810;48.800;9.086;2023-06-22T03:07:42;12.18;;;6.97;;
71937;SDS011;59810;48.800;9.086;2023-06-22T03:10:11;15.10;;;7.23;;
71937;SDS011;59810;48.800;9.086;2023-06-22T03:12:40;14.93;;;7.97;;
71937;SDS011;59810;48.800;9.086;2023-06-22T03:15:07;14.43;;;7.85;;
71937;SDS011;59810;48.800;9.086;2023-06-22T03:17:34;14.00;;;7.65;;
71937;SDS011;59810;48.800;9.086;2023-06-22T03:20:00;13.00;;;7.78;;
71937;SDS011;59810;48.800;9.086;2023-06-22T03:22:25;12.83;;;6.87;;
71937;SDS011;59810;48.800;9.086;2023-06-22T03:24:51;12.10;;;6.80;;
71937;SDS011;59810;48.800;9.086;2023-06-22T03:27:19;13.10;;;7.40;;
71937;SDS011;59810;48.800;9.086;2023-06-22T03:29:44;13.37;;;6.87;;
71937;SDS011;59810;48.800;9.086;2023-06-22T03:32:09;13.43;;;6.72;;
71937;SDS011;59810;48.800;9.086;2023-06-22T03:34:35;11.97;;;6.80;;
71937;SDS011;59810;48.800;9.086;2023-06-22T03:37:03;14.23;;;7.38;;
71937;SDS011;59810;48.800;9.086;2023-06-22T03:39:28;14.87;;;7.70;;
71937;SDS011;59810;48.800;9.086;2023-06-22T03:41:54;12.45;;;7.13;;
71937;SDS011;59810;48.800;9.086;2023-06-22T03:44:19;14.10;;;7.20;;
71937;SDS011;59810;48.800;9.086;2023-06-22T03:46:47;14.13;;;7.55;;
71937;SDS011;59810;48.800;9.086;2023-06-22T03:49:15;14.57;;;7.67;;
71937;SDS011;59810;48.800;9.086;2023-06-22T03:51:45;12.17;;;7.43;;
71937;SDS011;59810;48.800;9.086;2023-06-22T03:54:11;13.20;;;7.47;;
71937;SDS011;59810;48.800;9.086;2023-06-22T03:56:36;12.30;;;6.70;;
71937;SDS011;59810;48.800;9.086;2023-06-22T03:59:06;12.05;;;7.00;;
71937;SDS011;59810;48.800;9.086;2023-06-22T04:01:32;11.38;;;6.80;;
71937;SDS011;59810;48.800;9.086;2023-06-22T04:03:57;13.13;;;6.83;;
71937;SDS011;59810;48.800;9.086;2023-06-22T04:06:22;13.63;;;6.80;;
71937;SDS011;59810;48.800;9.086;2023-06-22T04:08:48;13.33;;;6.83;;
71937;SDS011;59810;48.800;9.086;2023-06-22T04:11:16;13.77;;;7.60;;
71937;SDS011;59810;48.800;9.086;2023-06-22T04:13:43;13.60;;;7.10;;
71937;SDS011;59810;48.800;9.086;2023-06-22T04:16:08;15.37;;;7.20;;
71937;SDS011;59810;48.800;9.086;2023-06-22T04:18:36;12.75;;;7.10;;
71937;SDS011;59810;48.800;9.086;2023-06-22T04:21:02;12.40;;;7.37;;
71937;SDS011;59810;48.800;9.086;2023-06-22T04:23:28;11.52;;;6.80;;
71937;SDS011;59810;48.800;9.086;2023-06-22T04:25:53;14.43;;;8.43;;
71937;SDS011;59810;48.800;9.086;2023-06-22T04:28:21;14.05;;;7.10;;
71937;SDS011;59810;48.800;9.086;2023-06-22T04:30:46;14.73;;;7.43;;
71937;SDS011;59810;48.800;9.086;2023-06-22T04:33:15;14.88;;;7.07;;
71937;SDS011;59810;48.800;9.086;2023-06-22T04:35:41;11.17;;;6.80;;
71937;SDS011;59810;48.800;9.086;2023-06-22T04:38:09;11.68;;;7.20;;
71937;SDS011;59810;48.800;9.086;2023-06-22T04:40:38;12.18;;;7.03;;
71937;SDS011;59810;48.800;9.086;2023-06-22T04:43:06;14.02;;;6.90;;
71937;SDS011;59810;48.800;9.086;2023-06-22T04:45:32;13.27;;;7.97;;
71937;SDS011;59810;48.800;9.086;2023-06-22T04:47:58;13.45;;;7.50;;
71937;SDS011;59810;48.800;9.086;2023-06-22T04:50:24;12.10;;;7.50;;
71937;SDS011;59810;48.800;9.086;2023-06-22T04:52:50;14.73;;;8.10;;
71937;SDS011;59810;48.800;9.086;2023-06-22T04:55:20;13.38;;;7.18;;
71937;SDS011;59810;48.800;9.086;2023-06-22T04:57:46;14.30;;;7.13;;
71937;SDS011;59810;48.800;9.086;2023-06-22T05:00:17;13.77;;;7.70;;
71937;SDS011;59810;48.800;9.086;2023-06-22T05:02:47;15.90;;;8.30;;
71937;SDS011;59810;48.800;9.086;2023-06-22T05:05:13;14.13;;;7.93;;
71937;SDS011;59810;48.800;9.086;2023-06-22T05:07:42;13.73;;;7.90;;
71937;SDS011;59810;48.800;9.086;2023-06-22T05:10:12;12.40;;;6.67;;
71937;SDS011;59810;48.800;9.086;2023-06-22T05:12:38;12.10;;;6.57;;
71937;SDS011;59810;48.800;9.086;2023-06-22T05:15:04;12.73;;;6.93;;
71937;SDS011;59810;48.800;9.086;2023-06-22T05:17:31;13.57;;;7.03;;
71937;SDS011;59810;48.800;9.086;2023-06-22T05:19:56;14.27;;;7.37;;
71937;SDS011;59810;48.800;9.086;2023-06-22T05:22:22;14.17;;;7.50;;
71937;SDS011;59810;48.800;9.086;2023-06-22T05:24:47;12.35;;;7.55;;
71937;SDS011;59810;48.800;9.086;2023-06-22T05:27:13;11.40;;;7.03;;
71937;SDS011;59810;48.800;9.086;2023-06-22T05:29:39;12.15;;;7.15;;
71937;SDS011;59810;48.800;9.086;2023-06-22T05:32:04;10.77;;;6.00;;
71937;SDS011;59810;48.800;9.086;2023-06-22T05:34:30;9.93;;;6.20;;
71937;SDS011;59810;48.800;9.086;2023-06-22T05:36:55;12.60;;;6.63;;
71937;SDS011;59810;48.800;9.086;2023-06-22T05:39:23;11.93;;;6.32;;
71937;SDS011;59810;48.800;9.086;2023-06-22T05:41:49;11.40;;;6.07;;
71937;SDS011;59810;48.800;9.086;2023-06-22T05:44:14;11.87;;;6.37;;
71937;SDS011;59810;48.800;9.086;2023-06-22T05:46:44;12.52;;;6.32;;
71937;SDS011;59810;48.800;9.086;2023-06-22T05:49:12;11.57;;;5.80;;
71937;SDS011;59810;48.800;9.086;2023-06-22T05:51:38;13.17;;;6.37;;
71937;SDS011;59810;48.800;9.086;2023-06-22T05:54:05;13.02;;;6.32;;
71937;SDS011;59810;48.800;9.086;2023-06-22T05:56:31;12.15;;;6.03;;
71937;SDS011;59810;48.800;9.086;2023-06-22T05:58:56;9.73;;;5.90;;
71937;SDS011;59810;48.800;9.086;2023-06-22T06:01:22;9.43;;;5.10;;
71937;SDS011;59810;48.800;9.086;2023-06-22T06:03:47;11.37;;;5.67;;
71937;SDS011;59810;48.800;9.086;2023-06-22T06:06:14;11.52;;;6.28;;
71937;SDS011;59810;48.800;9.086;2023-06-22T06:08:41;9.48;;;5.53;;
71937;SDS011;59810;48.800;9.086;2023-06-22T06:11:06;14.33;;;6.07;;
71937;SDS011;59810;48.800;9.086;2023-06-22T06:13:32;11.80;;;6.13;;
71937;SDS011;59810;48.800;9.086;2023-06-22T06:16:00;12.65;;;6.18;;
71937;SDS011;59810;48.800;9.086;2023-06-22T06:18:26;11.03;;;6.23;;
71937;SDS011;59810;48.800;9.086;2023-06-22T06:20:51;9.27;;;5.57;;
71937;SDS011;59810;48.800;9.086;2023-06-22T06:23:16;12.57;;;6.23;;
71937;SDS011;59810;48.800;9.086;2023-06-22T06:25:48;10.30;;;6.20;;
71937;SDS011;59810;48.800;9.086;2023-06-22T06:28:15;13.68;;;6.63;;
71937;SDS011;59810;48.800;9.086;2023-06-22T06:30:41;10.98;;;6.10;;
71937;SDS011;59810;48.800;9.086;2023-06-22T06:33:07;10.97;;;5.23;;
71937;SDS011;59810;48.800;9.086;2023-06-22T06:35:33;11.50;;;6.05;;
71937;SDS011;59810;48.800;9.086;2023-06-22T06:37:59;12.18;;;6.47;;
71937;SDS011;59810;48.800;9.086;2023-06-22T06:40:25;10.50;;;5.90;;
71937;SDS011;59810;48.800;9.086;2023-06-22T06:42:50;10.37;;;5.10;;
71937;SDS011;59810;48.800;9.086;2023-06-22T06:47:43;9.68;;;5.45;;
71937;SDS011;59810;48.800;9.086;2023-06-22T06:50:09;12.67;;;5.90;;
71937;SDS011;59810;48.800;9.086;2023-06-22T06:52:34;11.33;;;6.00;;
71937;SDS011;59810;48.800;9.086;2023-06-22T06:55:00;12.03;;;6.40;;
71937;SDS011;59810;48.800;9.086;2023-06-22T06:57:29;9.05;;;5.13;;
71937;SDS011;59810;48.800;9.086;2023-06-22T06:59:55;8.75;;;4.72;;
71937;SDS011;59810;48.800;9.086;2023-06-22T07:02:21;9.85;;;4.80;;
71937;SDS011;59810;48.800;9.086;2023-06-22T07:04:51;12.80;;;4.95;;
71937;SDS011;59810;48.800;9.086;2023-06-22T07:07:16;9.40;;;4.63;;
71937;SDS011;59810;48.800;9.086;2023-06-22T07:09:41;10.93;;;5.83;;
71937;SDS011;59810;48.800;9.086;2023-06-22T07:12:07;11.33;;;5.87;;
71937;SDS011;59810;48.800;9.086;2023-06-22T07:14:32;11.27;;;6.03;;
71937;SDS011;59810;48.800;9.086;2023-06-22T07:16:58;11.13;;;5.53;;
71937;SDS011;59810;48.800;9.086;2023-06-22T07:19:24;9.40;;;5.43;;
71937;SDS011;59810;48.800;9.086;2023-06-22T07:21:51;12.17;;;5.20;;
71937;SDS011;59810;48.800;9.086;2023-06-22T07:24:17;11.60;;;5.60;;
71937;SDS011;59810;48.800;9.086;2023-06-22T07:26:44;11.52;;;5.65;;
71937;SDS011;59810;48.800;9.086;2023-06-22T07:29:11;11.00;;;5.23;;
71937;SDS011;59810;48.800;9.086;2023-06-22T07:31:36;10.43;;;5.03;;
71937;SDS011;59810;48.800;9.086;2023-06-22T07:34:02;10.27;;;5.70;;
71937;SDS011;59810;48.800;9.086;2023-06-22T07:36:29;9.17;;;5.23;;
71937;SDS011;59810;48.800;9.086;2023-06-22T07:38:55;9.75;;;5.55;;
71937;SDS011;59810;48.800;9.086;2023-06-22T07:41:20;10.87;;;4.50;;
71937;SDS011;59810;48.800;9.086;2023-06-22T07:43:46;10.98;;;5.93;;
71937;SDS011;59810;48.800;9.086;2023-06-22T07:46:11;9.20;;;4.60;;
71937;SDS011;59810;48.800;9.086;2023-06-22T07:48:37;9.38;;;4.97;;
71937;SDS011;59810;48.800;9.086;2023-06-22T07:51:03;9.83;;;4.93;;
71937;SDS011;59810;48.800;9.086;2023-06-22T07:53:28;11.37;;;5.10;;
71937;SDS011;59810;48.800;9.086;2023-06-22T07:55:56;9.50;;;4.93;;
71937;SDS011;59810;48.800;9.086;2023-06-22T07:58:21;10.87;;;5.13;;
71937;SDS011;59810;48.800;9.086;2023-06-22T08:00:47;9.80;;;4.77;;
71937;SDS011;59810;48.800;9.086;2023-06-22T08:03:13;10.95;;;4.72;;
71937;SDS011;59810;48.800;9.086;2023-06-22T08:05:39;8.80;;;4.80;;
71937;SDS011;59810;48.800;9.086;2023-06-22T08:08:04;10.90;;;5.00;;
71937;SDS011;59810;48.800;9.086;2023-06-22T08:10:29;9.63;;;4.65;;
71937;SDS011;59810;48.800;9.086;2023-06-22T08:12:55;9.63;;;4.33;;
71937;SDS011;59810;48.800;9.086;2023-06-22T08:15:20;9.63;;;4.60;;
71937;SDS011;59810;48.800;9.086;2023-06-22T08:17:47;10.88;;;4.80;;
71937;SDS011;59810;48.800;9.086;2023-06-22T08:20:12;10.23;;;4.90;;
71937;SDS011;59810;48.800;9.086;2023-06-22T08:22:38;10.50;;;4.60;;
71937;SDS011;59810;48.800;9.086;2023-06-22T08:25:05;12.03;;;5.10;;
71937;SDS011;59810;48.800;9.086;2023-06-22T08:27:33;9.48;;;4.85;;
71937;SDS011;59810;48.800;9.086;2023-06-22T08:29:59;14.17;;;4.67;;
71937;SDS011;59810;48.800;9.086;2023-06-22T08:32:26;11.00;;;4.82;;
71937;SDS011;59810;48.800;9.086;2023-06-22T08:34:56;9.50;;;4.53;;
71937;SDS011;59810;48.800;9.086;2023-06-22T08:37:22;9.55;;;4.60;;
71937;SDS011;59810;48.800;9.086;2023-06-22T08:39:53;11.15;;;5.60;;
71937;SDS011;59810;48.800;9.086;2023-06-22T08:42:19;9.10;;;4.70;;
71937;SDS011;59810;48.800;9.086;2023-06-22T08:44:44;11.27;;;5.73;;
71937;SDS011;59810;48.800;9.086;2023-06-22T08:47:10;9.15;;;4.45;;
71937;SDS011;59810;48.800;9.086;2023-06-22T08:49:35;11.90;;;5.23;;
71937;SDS011;59810;48.800;9.086;2023-06-22T08:52:00;11.40;;;4.60;;
71937;SDS011;59810;48.800;9.086;2023-06-22T08:54:26;10.63;;;5.50;;
71937;SDS011;59810;48.800;9.086;2023-06-22T08:56:51;13.50;;;4.97;;
71937;SDS011;59810;48.800;9.086;2023-06-22T08:59:16;9.35;;;5.22;;
71937;SDS011;59810;48.800;9.086;2023-06-22T09:01:42;9.33;;;5.07;;
71937;SDS011;59810;48.800;9.086;2023-06-22T09:04:10;12.32;;;6.10;;
71937;SDS011;59810;48.800;9.086;2023-06-22T09:06:36;10.90;;;4.33;;
71937;SDS011;59810;48.800;9.086;2023-06-22T09:09:06;11.05;;;4.75;;
71937;SDS011;59810;48.800;9.086;2023-06-22T09:11:31;10.68;;;4.63;;
71937;SDS011;59810;48.800;9.086;2023-06-22T09:13:57;8.90;;;4.37;;
71937;SDS011;59810;48.800;9.086;2023-06-22T09:16:22;11.60;;;4.93;;
71937;SDS011;59810;48.800;9.086;2023-06-22T09:18:48;12.93;;;5.10;;
71937;SDS011;59810;48.800;9.086;2023-06-22T09:21:13;13.82;;;5.70;;
71937;SDS011;59810;48.800;9.086;2023-06-22T09:23:39;10.03;;;4.60;;
71937;SDS011;59810;48.800;9.086;2023-06-22T09:26:04;13.43;;;5.30;;
71937;SDS011;59810;48.800;9.086;2023-06-22T09:28:29;11.30;;;5.00;;
71937;SDS011;59810;48.800;9.086;2023-06-22T09:30:55;13.48;;;5.07;;
71937;SDS011;59810;48.800;9.086;2023-06-22T09:33:23;14.10;;;6.10;;
71937;SDS011;59810;48.800;9.086;2023-06-22T09:35:49;10.52;;;4.97;;
71937;SDS011;59810;48.800;9.086;2023-06-22T09:38:15;9.80;;;5.18;;
71937;SDS011;59810;48.800;9.086;2023-06-22T09:40:41;10.37;;;5.30;;
71937;SDS011;59810;48.800;9.086;2023-06-22T09:43:06;12.63;;;5.57;;
71937;SDS011;59810;48.800;9.086;2023-06-22T09:45:34;11.77;;;5.38;;
71937;SDS011;59810;48.800;9.086;2023-06-22T09:48:02;13.40;;;5.63;;
71937;SDS011;59810;48.800;9.086;2023-06-22T09:50:27;10.80;;;6.03;;
71937;SDS011;59810;48.800;9.086;2023-06-22T09:52:52;11.73;;;5.87;;
71937;SDS011;59810;48.800;9.086;2023-06-22T09:55:22;15.27;;;6.13;;
71937;SDS011;59810;48.800;9.086;2023-06-22T09:57:48;9.02;;;4.78;;
71937;SDS011;59810;48.800;9.086;2023-06-22T10:00:14;10.27;;;4.90;;
71937;SDS011;59810;48.800;9.086;2023-06-22T10:02:41;11.35;;;5.68;;
71937;SDS011;59810;48.800;9.086;2023-06-22T10:05:07;14.23;;;7.95;;
71937;SDS011;59810;48.800;9.086;2023-06-22T10:07:33;12.93;;;5.83;;
71937;SDS011;59810;48.800;9.086;2023-06-22T10:09:59;8.52;;;4.85;;
71937;SDS011;59810;48.800;9.086;2023-06-22T10:12:25;11.17;;;5.10;;
71937;SDS011;59810;48.800;9.086;2023-06-22T10:14:52;10.38;;;5.38;;
71937;SDS011;59810;48.800;9.086;2023-06-22T10:17:19;11.83;;;5.30;;
71937;SDS011;59810;48.800;9.086;2023-06-22T10:19:48;11.60;;;5.88;;
71937;SDS011;59810;48.800;9.086;2023-06-22T10:22:14;15.38;;;5.32;;
71937;SDS011;59810;48.800;9.086;2023-06-22T10:24:40;10.93;;;5.50;;
71937;SDS011;59810;48.800;9.086;2023-06-22T10:27:12;13.93;;;5.20;;
71937;SDS011;59810;48.800;9.086;2023-06-22T10:29:41;20.80;;;11.85;;
71937;SDS011;59810;48.800;9.086;2023-06-22T10:32:09;18.40;;;8.02;;
71937;SDS011;59810;48.800;9.086;2023-06-22T10:34:38;13.27;;;5.93;;
71937;SDS011;59810;48.800;9.086;2023-06-22T10:37:05;11.97;;;5.87;;
71937;SDS011;59810;48.800;9.086;2023-06-22T10:39:32;12.23;;;6.25;;
71937;SDS011;59810;48.800;9.086;2023-06-22T10:41:57;10.77;;;5.53;;
71937;SDS011;59810;48.800;9.086;2023-06-22T10:44:22;12.23;;;5.67;;
71937;SDS011;59810;48.800;9.086;2023-06-22T10:46:48;13.13;;;5.35;;
71937;SDS011;59810;48.800;9.086;2023-06-22T10:49:15;15.47;;;5.70;;
71937;SDS011;59810;48.800;9.086;2023-06-22T10:51:40;12.90;;;5.93;;
71937;SDS011;59810;48.800;9.086;2023-06-22T10:54:06;12.23;;;6.00;;
71937;SDS011;59810;48.800;9.086;2023-06-22T10:56:32;11.47;;;5.37;;
71937;SDS011;59810;48.800;9.086;2023-06-22T10:58:58;16.10;;;9.00;;
71937;SDS011;59810;48.800;9.086;2023-06-22T11:01:24;14.07;;;6.93;;
71937;SDS011;59810;48.800;9.086;2023-06-22T11:03:55;13.07;;;5.50;;
71937;SDS011;59810;48.800;9.086;2023-06-22T11:06:21;9.90;;;5.88;;
71937;SDS011;59810;48.800;9.086;2023-06-22T11:08:46;14.30;;;6.20;;
71937;SDS011;59810;48.800;9.086;2023-06-22T11:11:19;13.40;;;5.40;;
71937;SDS011;59810;48.800;9.086;2023-06-22T11:13:44;13.52;;;5.75;;
71937;SDS011;59810;48.800;9.086;2023-06-22T11:16:10;18.57;;;6.27;;
71937;SDS011;59810;48.800;9.086;2023-06-22T11:18:35;15.85;;;6.00;;
71937;SDS011;59810;48.800;9.086;2023-06-22T11:21:01;16.33;;;6.43;;
71937;SDS011;59810;48.800;9.086;2023-06-22T11:23:26;11.50;;;5.73;;
71937;SDS011;59810;48.800;9.086;2023-06-22T11:25:53;11.23;;;5.32;;
71937;SDS011;59810;48.800;9.086;2023-06-22T11:28:19;12.65;;;6.10;;
71937;SDS011;59810;48.800;9.086;2023-06-22T11:30:46;11.88;;;5.50;;
71937;SDS011;59810;48.800;9.086;2023-06-22T11:33:12;11.40;;;5.97;;
71937;SDS011;59810;48.800;9.086;2023-06-22T11:35:37;10.57;;;5.47;;
71937;SDS011;59810;48.800;9.086;2023-06-22T11:38:02;13.03;;;5.87;;
71937;SDS011;59810;48.800;9.086;2023-06-22T11:40:29;13.15;;;5.55;;
71937;SDS011;59810;48.800;9.086;2023-06-22T11:42:54;10.03;;;5.33;;
71937;SDS011;59810;48.800;9.086;2023-06-22T11:45:20;11.87;;;5.70;;
71937;SDS011;59810;48.800;9.086;2023-06-22T11:47:47;12.65;;;5.78;;
71937;SDS011;59810;48.800;9.086;2023-06-22T11:50:13;11.13;;;5.60;;
71937;SDS011;59810;48.800;9.086;2023-06-22T11:52:45;10.23;;;5.40;;
71937;SDS011;59810;48.800;9.086;2023-06-22T11:55:10;11.63;;;5.22;;
71937;SDS011;59810;48.800;9.086;2023-06-22T11:57:36;14.70;;;6.00;;
71937;SDS011;59810;48.800;9.086;2023-06-22T12:00:02;15.07;;;6.00;;
71937;SDS011;59810;48.800;9.086;2023-06-22T12:02:42;10.35;;;6.32;;
71937;SDS011;59810;48.800;9.086;2023-06-22T12:05:10;9.27;;;5.82;;
71937;SDS011;59810;48.800;9.086;2023-06-22T12:07:35;11.95;;;5.57;;
71937;SDS011;59810;48.800;9.086;2023-06-22T12:10:03;12.50;;;6.40;;
71937;SDS011;59810;48.800;9.086;2023-06-22T12:12:29;13.48;;;5.53;;
71937;SDS011;59810;48.800;9.086;2023-06-22T12:14:57;17.38;;;6.43;;
71937;SDS011;59810;48.800;9.086;2023-06-22T12:17:22;12.13;;;5.03;;
71937;SDS011;59810;48.800;9.086;2023-06-22T12:19:47;13.43;;;6.00;;
71937;SDS011;59810;48.800;9.086;2023-06-22T12:22:12;11.13;;;5.73;;
71937;SDS011;59810;48.800;9.086;2023-06-22T12:24:38;13.77;;;6.80;;
71937;SDS011;59810;48.800;9.086;2023-06-22T12:27:05;13.82;;;5.90;;
71937;SDS011;59810;48.800;9.086;2023-06-22T12:29:33;13.10;;;7.20;;
71937;SDS011;59810;48.800;9.086;2023-06-22T12:31:59;13.70;;;6.10;;
71937;SDS011;59810;48.800;9.086;2023-06-22T12:34:26;9.55;;;5.80;;
71937;SDS011;59810;48.800;9.086;2023-06-22T12:36:52;13.67;;;6.30;;
71937;SDS011;59810;48.800;9.086;2023-06-22T12:39:20;11.88;;;5.80;;
71937;SDS011;59810;48.800;9.086;2023-06-22T12:41:45;14.48;;;6.80;;
71937;SDS011;59810;48.800;9.086;2023-06-22T12:44:13;10.83;;;5.80;;
71937;SDS011;59810;48.800;9.086;2023-06-22T12:46:38;10.25;;;6.00;;
71937;SDS011;59810;48.800;9.086;2023-06-22T12:49:06;11.15;;;5.53;;
71937;SDS011;59810;48.800;9.086;2023-06-22T12:51:31;11.60;;;5.90;;
71937;SDS011;59810;48.800;9.086;2023-06-22T12:53:57;14.17;;;6.30;;
71937;SDS011;59810;48.800;9.086;2023-06-22T12:56:22;14.20;;;6.37;;
71937;SDS011;59810;48.800;9.086;2023-06-22T12:58:50;10.63;;;6.03;;
71937;SDS011;59810;48.800;9.086;2023-06-22T13:01:15;13.97;;;6.17;;
71937;SDS011;59810;48.800;9.086;2023-06-22T13:03:45;13.63;;;6.20;;
71937;SDS011;59810;48.800;9.086;2023-06-22T13:06:10;15.30;;;6.05;;
71937;SDS011;59810;48.800;9.086;2023-06-22T13:08:38;12.67;;;5.80;;
71937;SDS011;59810;48.800;9.086;2023-06-22T13:11:03;13.35;;;6.18;;
71937;SDS011;59810;48.800;9.086;2023-06-22T13:13:29;13.97;;;5.93;;
71937;SDS011;59810;48.800;9.086;2023-06-22T13:15:54;15.13;;;6.30;;
71937;SDS011;59810;48.800;9.086;2023-06-22T13:18:20;12.90;;;6.20;;
71937;SDS011;59810;48.800;9.086;2023-06-22T13:20:45;13.33;;;6.20;;
71937;SDS011;59810;48.800;9.086;2023-06-22T13:23:14;10.05;;;5.78;;
71937;SDS011;59810;48.800;9.086;2023-06-22T13:25:39;11.60;;;5.55;;
71937;SDS011;59810;48.800;9.086;2023-06-22T13:28:04;10.37;;;5.63;;
71937;SDS011;59810;48.800;9.086;2023-06-22T13:30:30;13.60;;;6.40;;
71937;SDS011;59810;48.800;9.086;2023-06-22T13:33:11;15.67;;;6.20;;
71937;SDS011;59810;48.800;9.086;2023-06-22T13:35:36;10.38;;;5.45;;
71937;SDS011;59810;48.800;9.086;2023-06-22T13:38:04;12.63;;;5.83;;
71937;SDS011;59810;48.800;9.086;2023-06-22T13:40:30;12.45;;;5.95;;
71937;SDS011;59810;48.800;9.086;2023-06-22T13:42:57;13.53;;;5.97;;
71937;SDS011;59810;48.800;9.086;2023-06-22T13:45:23;11.18;;;5.65;;
71937;SDS011;59810;48.800;9.086;2023-06-22T13:47:48;14.13;;;6.30;;
71937;SDS011;59810;48.800;9.086;2023-06-22T13:50:16;12.48;;;6.13;;
71937;SDS011;59810;48.800;9.086;2023-06-22T13:52:41;12.10;;;6.20;;
71937;SDS011;59810;48.800;9.086;2023-06-22T13:55:07;13.57;;;5.87;;
71937;SDS011;59810;48.800;9.086;2023-06-22T13:57:33;12.75;;;6.57;;
71937;SDS011;59810;48.800;9.086;2023-06-22T13:59:59;14.20;;;6.10;;
71937;SDS011;59810;48.800;9.086;2023-06-22T14:02:25;12.27;;;6.13;;
71937;SDS011;59810;48.800;9.086;2023-06-22T14:04:54;13.02;;;6.40;;
71937;SDS011;59810;48.800;9.086;2023-06-22T14:07:19;13.10;;;6.20;;
71937;SDS011;59810;48.800;9.086;2023-06-22T14:09:45;13.00;;;5.80;;
71937;SDS011;59810;48.800;9.086;2023-06-22T14:12:11;11.02;;;5.72;;
71937;SDS011;59810;48.800;9.086;2023-06-22T14:14:37;13.50;;;6.07;;
71937;SDS011;59810;48.800;9.086;2023-06-22T14:17:03;12.15;;;5.40;;
71937;SDS011;59810;48.800;9.086;2023-06-22T14:19:29;11.87;;;5.30;;
71937;SDS011;59810;48.800;9.086;2023-06-22T14:21:54;15.73;;;6.45;;
71937;SDS011;59810;48.800;9.086;2023-06-22T14:24:20;10.03;;;5.20;;
71937;SDS011;59810;48.800;9.086;2023-06-22T14:26:45;13.37;;;5.60;;
71937;SDS011;59810;48.800;9.086;2023-06-22T14:29:10;14.43;;;5.77;;
71937;SDS011;59810;48.800;9.086;2023-06-22T14:31:36;12.43;;;5.80;;
71937;SDS011;59810;48.800;9.086;2023-06-22T14:34:01;12.53;;;5.40;;
71937;SDS011;59810;48.800;9.086;2023-06-22T14:36:28;13.05;;;5.85;;
71937;SDS011;59810;48.800;9.086;2023-06-22T14:38:56;11.50;;;5.88;;
71937;SDS011;59810;48.800;9.086;2023-06-22T14:41:21;10.53;;;5.97;;
71937;SDS011;59810;48.800;9.086;2023-06-22T14:43:47;10.90;;;5.50;;